sensor_id;sensor_type;location;lat;lon;timestamp;temperature;humidity
12959;DHT22;6544;51.666;6.634;2023-04-25T00:02:24;7.20;99.90
12959;DHT22;6544;51.666;6.634;2023-04-25T00:04:51;7.30;99.90
12959;DHT22;6544;51.666;6.634;2023-04-25T00:07:18;7.10;99.90
12959;DHT22;6544;51.666;6.634;2023-04-25T00:09:45;7.10;1.00
12959;DHT22;6544;51.666;6.634;2023-04-25T00:12:12;7.10;99.90
12959;DHT22;6544;51.666;6.634;2023-04-25T00:14:39;7.20;1.00
12959;DHT22;6544;51.666;6.634;2023-04-25T00:17:07;7.30;99.90
12959;DHT22;6544;51.666;6.634;2023-04-25T00:19:34;7.10;99.90
12959;DHT22;6544;51.666;6.634;2023-04-25T00:22:03;7.20;1.00
12959;DHT22;6544;51.666;6.634;2023-04-25T00:24:31;7.40;99.90
12959;DHT22;6544;51.666;6.634;2023-04-25T00:26:57;7.40;68.80
12959;DHT22;6544;51.666;6.634;2023-04-25T00:29:24;7.30;99.90
12959;DHT22;6544;51.666;6.634;2023-04-25T00:31:51;7.20;99.90
12959;DHT22;6544;51.666;6.634;2023-04-25T00:34:19;7.20;99.90
12959;DHT22;6544;51.666;6.634;2023-04-25T00:36:46;7.20;99.90
12959;DHT22;6544;51.666;6.634;2023-04-25T00:39:13;7.10;1.00
12959;DHT22;6544;51.666;6.634;2023-04-25T00:41:40;7.00;1.00
12959;DHT22;6544;51.666;6.634;2023-04-25T00:44:09;7.00;1.00
12959;DHT22;6544;51.666;6.634;2023-04-25T00:46:38;7.00;1.00
12959;DHT22;6544;51.666;6.634;2023-04-25T00:49:05;7.20;1.00
12959;DHT22;6544;51.666;6.634;2023-04-25T00:51:33;7.30;1.00
12959;DHT22;6544;51.666;6.634;2023-04-25T00:54:01;7.40;99.90
12959;DHT22;6544;51.666;6.634;2023-04-25T00:56:28;7.50;99.90
12959;DHT22;6544;51.666;6.634;2023-04-25T00:58:55;7.50;99.90
12959;DHT22;6544;51.666;6.634;2023-04-25T01:01:22;7.40;20.00
12959;DHT22;6544;51.666;6.634;2023-04-25T01:03:50;7.30;35.90
12959;DHT22;6544;51.666;6.634;2023-04-25T01:06:18;7.20;99.90
12959;DHT22;6544;51.666;6.634;2023-04-25T01:08:47;7.10;1.00
12959;DHT22;6544;51.666;6.634;2023-04-25T01:11:14;7.00;1.00
12959;DHT22;6544;51.666;6.634;2023-04-25T01:13:40;6.90;1.00
12959;DHT22;6544;51.666;6.634;2023-04-25T01:16:07;7.00;6.10
12959;DHT22;6544;51.666;6.634;2023-04-25T01:18:34;7.10;1.00
12959;DHT22;6544;51.666;6.634;2023-04-25T01:21:07;6.80;1.00
12959;DHT22;6544;51.666;6.634;2023-04-25T01:23:35;6.80;99.90
12959;DHT22;6544;51.666;6.634;2023-04-25T01:26:03;6.90;99.90
12959;DHT22;6544;51.666;6.634;2023-04-25T01:28:30;6.90;21.20
12959;DHT22;6544;51.666;6.634;2023-04-25T01:30:58;7.00;1.00
12959;DHT22;6544;51.666;6.634;2023-04-25T01:33:25;7.10;99.90
12959;DHT22;6544;51.666;6.634;2023-04-25T01:35:52;6.90;32.20
12959;DHT22;6544;51.666;6.634;2023-04-25T01:38:22;6.90;1.00
12959;DHT22;6544;51.666;6.634;2023-04-25T01:40:49;7.00;99.90
12959;DHT22;6544;51.666;6.634;2023-04-25T01:43:17;7.10;99.90
12959;DHT22;6544;51.666;6.634;2023-04-25T01:45:44;7.00;99.90
12959;DHT22;6544;51.666;6.634;2023-04-25T01:48:12;6.90;99.90
12959;DHT22;6544;51.666;6.634;2023-04-25T01:50:39;6.90;1.00
12959;DHT22;6544;51.666;6.634;2023-04-25T01:53:09;6.70;1.00
12959;DHT22;6544;51.666;6.634;2023-04-25T01:55:38;6.70;32.90
12959;DHT22;6544;51.666;6.634;2023-04-25T01:58:05;6.60;1.00
12959;DHT22;6544;51.666;6.634;2023-04-25T02:00:35;6.60;1.00
12959;DHT22;6544;51.666;6.634;2023-04-25T02:03:03;6.70;99.90
12959;DHT22;6544;51.666;6.634;2023-04-25T02:05:34;6.80;1.00
12959;DHT22;6544;51.666;6.634;2023-04-25T02:08:02;6.80;95.00
12959;DHT22;6544;51.666;6.634;2023-04-25T02:10:29;7.00;1.00
12959;DHT22;6544;51.666;6.634;2023-04-25T02:12:58;6.90;1.00
12959;DHT22;6544;51.666;6.634;2023-04-25T02:15:25;6.90;1.00
12959;DHT22;6544;51.666;6.634;2023-04-25T02:17:52;6.80;99.90
12959;DHT22;6544;51.666;6.634;2023-04-25T02:20:20;6.80;1.00
12959;DHT22;6544;51.666;6.634;2023-04-25T02:22:47;6.90;71.00
12959;DHT22;6544;51.666;6.634;2023-04-25T02:25:14;6.70;99.90
12959;DHT22;6544;51.666;6.634;2023-04-25T02:27:41;6.70;99.90
12959;DHT22;6544;51.666;6.634;2023-04-25T02:30:10;6.60;1.00
12959;DHT22;6544;51.666;6.634;2023-04-25T02:32:37;6.70;1.00
12959;DHT22;6544;51.666;6.634;2023-04-25T02:35:05;6.70;1.00
12959;DHT22;6544;51.666;6.634;2023-04-25T02:37:32;6.60;1.00
12959;DHT22;6544;51.666;6.634;2023-04-25T02:40:00;6.60;99.90
12959;DHT22;6544;51.666;6.634;2023-04-25T02:42:28;6.60;99.90
12959;DHT22;6544;51.666;6.634;2023-04-25T02:44:55;6.60;99.90
12959;DHT22;6544;51.666;6.634;2023-04-25T02:47:23;6.70;99.90
12959;DHT22;6544;51.666;6.634;2023-04-25T02:49:50;6.90;1.00
12959;DHT22;6544;51.666;6.634;2023-04-25T02:52:17;6.70;7.60
12959;DHT22;6544;51.666;6.634;2023-04-25T02:54:44;6.80;99.90
12959;DHT22;6544;51.666;6.634;2023-04-25T02:57:11;6.60;1.00
12959;DHT22;6544;51.666;6.634;2023-04-25T02:59:38;6.70;99.90
12959;DHT22;6544;51.666;6.634;2023-04-25T03:02:05;6.70;1.00
12959;DHT22;6544;51.666;6.634;2023-04-25T03:04:33;6.80;99.90
12959;DHT22;6544;51.666;6.634;2023-04-25T03:07:00;6.80;1.00
12959;DHT22;6544;51.666;6.634;2023-04-25T03:09:27;6.80;1.00
12959;DHT22;6544;51.666;6.634;2023-04-25T03:11:54;6.60;99.90
12959;DHT22;6544;51.666;6.634;2023-04-25T03:14:21;6.50;1.00
12959;DHT22;6544;51.666;6.634;2023-04-25T03:16:47;6.70;99.90
12959;DHT22;6544;51.666;6.634;2023-04-25T03:19:15;6.70;4.50
12959;DHT22;6544;51.666;6.634;2023-04-25T03:21:44;6.90;1.00
12959;DHT22;6544;51.666;6.634;2023-04-25T03:24:10;6.80;39.10
12959;DHT22;6544;51.666;6.634;2023-04-25T03:26:37;6.80;99.90
12959;DHT22;6544;51.666;6.634;2023-04-25T03:29:04;6.90;1.00
12959;DHT22;6544;51.666;6.634;2023-04-25T03:31:31;6.80;99.90
12959;DHT22;6544;51.666;6.634;2023-04-25T03:33:58;6.70;99.90
12959;DHT22;6544;51.666;6.634;2023-04-25T03:36:25;6.60;1.00
12959;DHT22;6544;51.666;6.634;2023-04-25T03:38:53;6.60;1.00
12959;DHT22;6544;51.666;6.634;2023-04-25T03:41:20;6.60;99.90
12959;DHT22;6544;51.666;6.634;2023-04-25T03:43:47;6.80;1.00
12959;DHT22;6544;51.666;6.634;2023-04-25T03:46:14;6.70;99.90
12959;DHT22;6544;51.666;6.634;2023-04-25T03:48:41;6.70;47.70
12959;DHT22;6544;51.666;6.634;2023-04-25T03:51:07;6.90;1.00
12959;DHT22;6544;51.666;6.634;2023-04-25T03:53:34;6.80;99.90
12959;DHT22;6544;51.666;6.634;2023-04-25T03:56:03;6.70;1.00
12959;DHT22;6544;51.666;6.634;2023-04-25T03:58:30;6.80;1.00
12959;DHT22;6544;51.666;6.634;2023-04-25T04:00:57;6.70;99.90
12959;DHT22;6544;51.666;6.634;2023-04-25T04:03:24;6.80;1.00
12959;DHT22;6544;51.666;6.634;2023-04-25T04:05:51;6.70;99.90
12959;DHT22;6544;51.666;6.634;2023-04-25T04:08:18;6.70;99.90
12959;DHT22;6544;51.666;6.634;2023-04-25T04:10:45;6.50;99.90
12959;DHT22;6544;51.666;6.634;2023-04-25T04:13:13;6.40;99.90
12959;DHT22;6544;51.666;6.634;2023-04-25T04:15:40;6.20;1.00
12959;DHT22;6544;51.666;6.634;2023-04-25T04:18:07;6.20;99.90
12959;DHT22;6544;51.666;6.634;2023-04-25T04:20:34;6.10;1.00
12959;DHT22;6544;51.666;6.634;2023-04-25T04:23:01;6.40;1.00
12959;DHT22;6544;51.666;6.634;2023-04-25T04:25:28;6.20;23.60
12959;DHT22;6544;51.666;6.634;2023-04-25T04:27:55;6.30;99.90
12959;DHT22;6544;51.666;6.634;2023-04-25T04:30:24;6.30;1.00
12959;DHT22;6544;51.666;6.634;2023-04-25T04:32:54;6.40;1.00
12959;DHT22;6544;51.666;6.634;2023-04-25T04:35:22;6.60;99.90
12959;DHT22;6544;51.666;6.634;2023-04-25T04:37:49;6.50;1.00
12959;DHT22;6544;51.666;6.634;2023-04-25T04:40:18;6.50;99.90
12959;DHT22;6544;51.666;6.634;2023-04-25T04:42:46;6.40;1.00
12959;DHT22;6544;51.666;6.634;2023-04-25T04:45:13;6.60;1.00
12959;DHT22;6544;51.666;6.634;2023-04-25T04:47:43;6.70;99.90
12959;DHT22;6544;51.666;6.634;2023-04-25T04:50:12;6.80;25.20
12959;DHT22;6544;51.666;6.634;2023-04-25T04:52:40;6.60;1.00
12959;DHT22;6544;51.666;6.634;2023-04-25T04:55:08;6.70;1.00
12959;DHT22;6544;51.666;6.634;2023-04-25T04:57:35;6.40;1.00
12959;DHT22;6544;51.666;6.634;2023-04-25T05:00:03;6.20;1.00
12959;DHT22;6544;51.666;6.634;2023-04-25T05:02:32;6.20;99.90
12959;DHT22;6544;51.666;6.634;2023-04-25T05:05:00;6.10;99.90
12959;DHT22;6544;51.666;6.634;2023-04-25T05:07:27;6.10;1.00
12959;DHT22;6544;51.666;6.634;2023-04-25T05:09:54;6.00;1.00
12959;DHT22;6544;51.666;6.634;2023-04-25T05:12:21;5.90;1.00
12959;DHT22;6544;51.666;6.634;2023-04-25T05:14:47;5.80;1.00
12959;DHT22;6544;51.666;6.634;2023-04-25T05:17:14;5.80;99.90
12959;DHT22;6544;51.666;6.634;2023-04-25T05:19:41;5.80;99.90
12959;DHT22;6544;51.666;6.634;2023-04-25T05:22:09;5.70;99.90
12959;DHT22;6544;51.666;6.634;2023-04-25T05:24:36;5.60;99.90
12959;DHT22;6544;51.666;6.634;2023-04-25T05:27:03;5.70;99.90
12959;DHT22;6544;51.666;6.634;2023-04-25T05:29:37;5.80;99.90
12959;DHT22;6544;51.666;6.634;2023-04-25T05:32:09;5.70;1.00
12959;DHT22;6544;51.666;6.634;2023-04-25T05:34:36;5.70;1.00
12959;DHT22;6544;51.666;6.634;2023-04-25T05:37:03;5.70;1.00
12959;DHT22;6544;51.666;6.634;2023-04-25T05:39:31;5.70;87.60
12959;DHT22;6544;51.666;6.634;2023-04-25T05:41:58;5.80;99.90
12959;DHT22;6544;51.666;6.634;2023-04-25T05:44:32;5.80;1.00
12959;DHT22;6544;51.666;6.634;2023-04-25T05:46:59;5.80;87.00
12959;DHT22;6544;51.666;6.634;2023-04-25T05:49:26;5.80;1.00
12959;DHT22;6544;51.666;6.634;2023-04-25T05:51:53;5.80;1.00
12959;DHT22;6544;51.666;6.634;2023-04-25T05:54:20;5.90;1.00
12959;DHT22;6544;51.666;6.634;2023-04-25T05:56:48;5.90;1.00
12959;DHT22;6544;51.666;6.634;2023-04-25T05:59:18;5.90;99.90
12959;DHT22;6544;51.666;6.634;2023-04-25T06:01:45;5.90;99.90
12959;DHT22;6544;51.666;6.634;2023-04-25T06:04:12;5.90;99.90
12959;DHT22;6544;51.666;6.634;2023-04-25T06:06:40;5.70;1.00
12959;DHT22;6544;51.666;6.634;2023-04-25T06:09:07;5.80;99.90
12959;DHT22;6544;51.666;6.634;2023-04-25T06:11:34;5.80;99.90
12959;DHT22;6544;51.666;6.634;2023-04-25T06:14:04;5.80;41.60
12959;DHT22;6544;51.666;6.634;2023-04-25T06:16:31;5.80;99.90
12959;DHT22;6544;51.666;6.634;2023-04-25T06:18:57;5.70;1.00
12959;DHT22;6544;51.666;6.634;2023-04-25T06:21:24;5.80;1.00
12959;DHT22;6544;51.666;6.634;2023-04-25T06:23:52;5.90;1.00
12959;DHT22;6544;51.666;6.634;2023-04-25T06:26:19;5.90;1.00
12959;DHT22;6544;51.666;6.634;2023-04-25T06:28:46;6.00;1.00
12959;DHT22;6544;51.666;6.634;2023-04-25T06:31:14;6.00;1.00
12959;DHT22;6544;51.666;6.634;2023-04-25T06:33:41;6.10;1.00
12959;DHT22;6544;51.666;6.634;2023-04-25T06:36:08;6.30;1.00
12959;DHT22;6544;51.666;6.634;2023-04-25T06:38:35;6.20;99.90
12959;DHT22;6544;51.666;6.634;2023-04-25T06:41:02;6.30;99.90
12959;DHT22;6544;51.666;6.634;2023-04-25T06:43:29;6.30;99.90
12959;DHT22;6544;51.666;6.634;2023-04-25T06:45:58;6.30;53.60
12959;DHT22;6544;51.666;6.634;2023-04-25T06:48:27;6.40;1.00
12959;DHT22;6544;51.666;6.634;2023-04-25T06:50:54;6.40;1.00
12959;DHT22;6544;51.666;6.634;2023-04-25T06:53:22;6.40;1.00
12959;DHT22;6544;51.666;6.634;2023-04-25T06:55:48;6.50;1.00
12959;DHT22;6544;51.666;6.634;2023-04-25T06:58:15;6.50;1.00
12959;DHT22;6544;51.666;6.634;2023-04-25T07:00:42;6.60;99.90
12959;DHT22;6544;51.666;6.634;2023-04-25T07:03:09;6.60;99.90
12959;DHT22;6544;51.666;6.634;2023-04-25T07:05:37;6.60;99.90
12959;DHT22;6544;51.666;6.634;2023-04-25T07:08:05;6.70;99.90
12959;DHT22;6544;51.666;6.634;2023-04-25T07:10:32;6.70;99.90
12959;DHT22;6544;51.666;6.634;2023-04-25T07:12:59;6.70;99.90
12959;DHT22;6544;51.666;6.634;2023-04-25T07:15:25;6.70;99.90
12959;DHT22;6544;51.666;6.634;2023-04-25T07:17:52;6.70;99.90
12959;DHT22;6544;51.666;6.634;2023-04-25T07:20:19;6.80;99.90
12959;DHT22;6544;51.666;6.634;2023-04-25T07:22:47;6.80;99.90
12959;DHT22;6544;51.666;6.634;2023-04-25T07:25:15;6.90;99.90
12959;DHT22;6544;51.666;6.634;2023-04-25T07:27:42;6.90;14.00
12959;DHT22;6544;51.666;6.634;2023-04-25T07:30:10;6.90;46.40
12959;DHT22;6544;51.666;6.634;2023-04-25T07:32:38;7.00;23.60
12959;DHT22;6544;51.666;6.634;2023-04-25T07:35:05;7.00;32.30
12959;DHT22;6544;51.666;6.634;2023-04-25T07:37:33;7.00;23.70
12959;DHT22;6544;51.666;6.634;2023-04-25T07:40:02;7.00;18.00
12959;DHT22;6544;51.666;6.634;2023-04-25T07:42:30;7.10;23.90
12959;DHT22;6544;51.666;6.634;2023-04-25T07:44:57;7.10;63.80
12959;DHT22;6544;51.666;6.634;2023-04-25T07:47:24;7.20;35.60
12959;DHT22;6544;51.666;6.634;2023-04-25T07:49:51;7.20;1.00
12959;DHT22;6544;51.666;6.634;2023-04-25T07:52:18;7.10;1.00
12959;DHT22;6544;51.666;6.634;2023-04-25T07:54:45;7.20;1.00
12959;DHT22;6544;51.666;6.634;2023-04-25T07:57:14;7.20;4.60
12959;DHT22;6544;51.666;6.634;2023-04-25T07:59:42;7.30;1.00
12959;DHT22;6544;51.666;6.634;2023-04-25T08:02:09;7.40;1.00
12959;DHT22;6544;51.666;6.634;2023-04-25T08:04:36;7.40;1.00
12959;DHT22;6544;51.666;6.634;2023-04-25T08:07:03;7.40;1.00
12959;DHT22;6544;51.666;6.634;2023-04-25T08:09:30;7.50;1.00
12959;DHT22;6544;51.666;6.634;2023-04-25T08:12:00;7.60;1.00
12959;DHT22;6544;51.666;6.634;2023-04-25T08:14:29;7.60;1.00
12959;DHT22;6544;51.666;6.634;2023-04-25T08:17:01;7.60;1.00
12959;DHT22;6544;51.666;6.634;2023-04-25T08:19:28;7.70;1.00
12959;DHT22;6544;51.666;6.634;2023-04-25T08:21:56;7.80;1.00
12959;DHT22;6544;51.666;6.634;2023-04-25T08:24:23;7.90;1.00
12959;DHT22;6544;51.666;6.634;2023-04-25T08:26:49;8.00;1.00
12959;DHT22;6544;51.666;6.634;2023-04-25T08:29:17;8.00;1.00
12959;DHT22;6544;51.666;6.634;2023-04-25T08:31:45;8.10;1.00
12959;DHT22;6544;51.666;6.634;2023-04-25T08:34:12;8.00;1.00
12959;DHT22;6544;51.666;6.634;2023-04-25T08:36:39;8.00;1.00
12959;DHT22;6544;51.666;6.634;2023-04-25T08:39:06;8.20;1.00
12959;DHT22;6544;51.666;6.634;2023-04-25T08:41:32;8.20;1.00
12959;DHT22;6544;51.666;6.634;2023-04-25T08:44:01;8.20;1.00
12959;DHT22;6544;51.666;6.634;2023-04-25T08:46:30;8.20;1.00
12959;DHT22;6544;51.666;6.634;2023-04-25T08:49:01;8.30;1.00
12959;DHT22;6544;51.666;6.634;2023-04-25T08:51:31;8.40;1.00
12959;DHT22;6544;51.666;6.634;2023-04-25T08:54:04;8.60;1.00
12959;DHT22;6544;51.666;6.634;2023-04-25T08:56:35;8.50;1.00
12959;DHT22;6544;51.666;6.634;2023-04-25T08:59:02;8.50;1.00
12959;DHT22;6544;51.666;6.634;2023-04-25T09:01:29;8.60;1.00
12959;DHT22;6544;51.666;6.634;2023-04-25T09:03:58;8.70;1.00
12959;DHT22;6544;51.666;6.634;2023-04-25T09:06:28;8.50;1.00
12959;DHT22;6544;51.666;6.634;2023-04-25T09:09:01;8.60;1.00
12959;DHT22;6544;51.666;6.634;2023-04-25T09:11:29;8.90;1.00
12959;DHT22;6544;51.666;6.634;2023-04-25T09:14:13;9.00;1.00
12959;DHT22;6544;51.666;6.634;2023-04-25T09:16:58;9.10;1.00
12959;DHT22;6544;51.666;6.634;2023-04-25T09:19:28;9.10;1.00
12959;DHT22;6544;51.666;6.634;2023-04-25T09:21:56;9.00;1.00
12959;DHT22;6544;51.666;6.634;2023-04-25T09:24:37;8.90;1.00
12959;DHT22;6544;51.666;6.634;2023-04-25T09:27:04;9.20;1.00
12959;DHT22;6544;51.666;6.634;2023-04-25T09:29:33;9.10;1.00
12959;DHT22;6544;51.666;6.634;2023-04-25T09:32:17;9.20;1.00
12959;DHT22;6544;51.666;6.634;2023-04-25T09:34:46;9.20;1.00
12959;DHT22;6544;51.666;6.634;2023-04-25T09:37:18;9.00;1.00
12959;DHT22;6544;51.666;6.634;2023-04-25T09:39:46;8.80;1.00
12959;DHT22;6544;51.666;6.634;2023-04-25T09:42:14;8.90;1.00
12959;DHT22;6544;51.666;6.634;2023-04-25T09:44:43;8.80;1.00
12959;DHT22;6544;51.666;6.634;2023-04-25T09:47:11;8.90;1.00
12959;DHT22;6544;51.666;6.634;2023-04-25T09:49:40;8.90;1.00
12959;DHT22;6544;51.666;6.634;2023-04-25T09:52:15;8.80;1.00
12959;DHT22;6544;51.666;6.634;2023-04-25T09:54:43;9.00;1.00
12959;DHT22;6544;51.666;6.634;2023-04-25T09:57:12;8.90;1.00
12959;DHT22;6544;51.666;6.634;2023-04-25T09:59:45;8.40;1.00
12959;DHT22;6544;51.666;6.634;2023-04-25T10:02:13;7.40;1.00
12959;DHT22;6544;51.666;6.634;2023-04-25T10:04:41;7.00;1.00
12959;DHT22;6544;51.666;6.634;2023-04-25T10:07:09;6.90;56.80
12959;DHT22;6544;51.666;6.634;2023-04-25T10:09:38;7.10;99.90
12959;DHT22;6544;51.666;6.634;2023-04-25T10:12:07;7.00;99.90
12959;DHT22;6544;51.666;6.634;2023-04-25T10:14:34;6.80;99.90
12959;DHT22;6544;51.666;6.634;2023-04-25T10:17:03;6.80;99.90
12959;DHT22;6544;51.666;6.634;2023-04-25T10:19:30;6.80;1.00
12959;DHT22;6544;51.666;6.634;2023-04-25T10:22:06;6.90;1.00
12959;DHT22;6544;51.666;6.634;2023-04-25T10:24:35;6.90;1.00
12959;DHT22;6544;51.666;6.634;2023-04-25T10:27:04;7.10;1.00
12959;DHT22;6544;51.666;6.634;2023-04-25T10:29:31;7.10;99.90
12959;DHT22;6544;51.666;6.634;2023-04-25T10:31:58;7.20;99.90
12959;DHT22;6544;51.666;6.634;2023-04-25T10:34:38;7.20;99.90
12959;DHT22;6544;51.666;6.634;2023-04-25T10:37:09;7.20;99.90
12959;DHT22;6544;51.666;6.634;2023-04-25T10:39:39;7.60;99.90
12959;DHT22;6544;51.666;6.634;2023-04-25T10:42:07;7.70;1.00
12959;DHT22;6544;51.666;6.634;2023-04-25T10:44:34;7.90;1.00
12959;DHT22;6544;51.666;6.634;2023-04-25T10:47:03;7.90;1.00
12959;DHT22;6544;51.666;6.634;2023-04-25T10:49:34;7.90;1.00
12959;DHT22;6544;51.666;6.634;2023-04-25T10:52:15;8.00;1.00
12959;DHT22;6544;51.666;6.634;2023-04-25T10:54:46;8.10;1.00
12959;DHT22;6544;51.666;6.634;2023-04-25T10:57:30;8.20;1.00
12959;DHT22;6544;51.666;6.634;2023-04-25T11:00:09;8.40;1.00
12959;DHT22;6544;51.666;6.634;2023-04-25T11:02:40;8.50;1.00
12959;DHT22;6544;51.666;6.634;2023-04-25T11:05:09;8.40;1.00
12959;DHT22;6544;51.666;6.634;2023-04-25T11:07:39;8.50;1.00
12959;DHT22;6544;51.666;6.634;2023-04-25T11:10:11;8.70;1.00
12959;DHT22;6544;51.666;6.634;2023-04-25T11:12:38;8.90;1.00
12959;DHT22;6544;51.666;6.634;2023-04-25T11:15:08;8.90;1.00
12959;DHT22;6544;51.666;6.634;2023-04-25T11:17:35;9.00;1.00
12959;DHT22;6544;51.666;6.634;2023-04-25T11:20:03;9.20;1.00
12959;DHT22;6544;51.666;6.634;2023-04-25T11:22:34;9.30;1.00
12959;DHT22;6544;51.666;6.634;2023-04-25T11:25:05;9.30;1.00
12959;DHT22;6544;51.666;6.634;2023-04-25T11:27:33;9.70;1.00
12959;DHT22;6544;51.666;6.634;2023-04-25T11:30:12;9.90;1.00
12959;DHT22;6544;51.666;6.634;2023-04-25T11:32:40;10.20;1.00
12959;DHT22;6544;51.666;6.634;2023-04-25T11:35:08;10.60;1.00
12959;DHT22;6544;51.666;6.634;2023-04-25T11:37:35;10.60;1.00
12959;DHT22;6544;51.666;6.634;2023-04-25T11:40:03;10.40;1.00
12959;DHT22;6544;51.666;6.634;2023-04-25T11:42:33;10.30;1.00
12959;DHT22;6544;51.666;6.634;2023-04-25T11:45:00;10.10;1.00
12959;DHT22;6544;51.666;6.634;2023-04-25T11:47:29;10.30;1.00
12959;DHT22;6544;51.666;6.634;2023-04-25T11:49:57;10.20;1.00
12959;DHT22;6544;51.666;6.634;2023-04-25T11:52:24;10.40;1.00
12959;DHT22;6544;51.666;6.634;2023-04-25T11:54:51;10.40;1.00
12959;DHT22;6544;51.666;6.634;2023-04-25T11:57:19;10.30;1.00
12959;DHT22;6544;51.666;6.634;2023-04-25T11:59:47;10.30;1.00
12959;DHT22;6544;51.666;6.634;2023-04-25T12:02:24;10.30;1.00
12959;DHT22;6544;51.666;6.634;2023-04-25T12:04:52;10.50;1.00
12959;DHT22;6544;51.666;6.634;2023-04-25T12:07:19;10.10;1.00
12959;DHT22;6544;51.666;6.634;2023-04-25T12:09:51;10.40;1.00
12959;DHT22;6544;51.666;6.634;2023-04-25T12:12:19;10.60;1.00
12959;DHT22;6544;51.666;6.634;2023-04-25T12:14:48;10.70;1.00
12959;DHT22;6544;51.666;6.634;2023-04-25T12:17:16;10.70;1.00
12959;DHT22;6544;51.666;6.634;2023-04-25T12:19:46;10.60;1.00
12959;DHT22;6544;51.666;6.634;2023-04-25T12:22:20;10.00;1.00
12959;DHT22;6544;51.666;6.634;2023-04-25T12:24:48;9.50;1.00
12959;DHT22;6544;51.666;6.634;2023-04-25T12:27:16;9.40;1.00
12959;DHT22;6544;51.666;6.634;2023-04-25T12:29:53;9.10;1.00
12959;DHT22;6544;51.666;6.634;2023-04-25T12:32:20;9.20;1.00
12959;DHT22;6544;51.666;6.634;2023-04-25T12:34:47;9.30;1.00
12959;DHT22;6544;51.666;6.634;2023-04-25T12:37:15;9.50;1.00
12959;DHT22;6544;51.666;6.634;2023-04-25T12:39:43;9.60;1.00
12959;DHT22;6544;51.666;6.634;2023-04-25T12:42:10;9.90;1.00
12959;DHT22;6544;51.666;6.634;2023-04-25T12:44:38;9.80;1.00
12959;DHT22;6544;51.666;6.634;2023-04-25T12:47:06;9.80;1.00
12959;DHT22;6544;51.666;6.634;2023-04-25T12:49:33;9.70;1.00
12959;DHT22;6544;51.666;6.634;2023-04-25T12:52:00;9.80;1.00
12959;DHT22;6544;51.666;6.634;2023-04-25T12:54:27;9.80;1.00
12959;DHT22;6544;51.666;6.634;2023-04-25T12:56:54;9.80;1.00
12959;DHT22;6544;51.666;6.634;2023-04-25T12:59:21;9.90;1.00
12959;DHT22;6544;51.666;6.634;2023-04-25T13:01:48;9.90;1.00
12959;DHT22;6544;51.666;6.634;2023-04-25T13:04:16;10.00;1.00
12959;DHT22;6544;51.666;6.634;2023-04-25T13:06:45;10.10;1.00
12959;DHT22;6544;51.666;6.634;2023-04-25T13:09:12;10.10;1.00
12959;DHT22;6544;51.666;6.634;2023-04-25T13:11:40;10.10;1.00
12959;DHT22;6544;51.666;6.634;2023-04-25T13:14:07;10.30;1.00
12959;DHT22;6544;51.666;6.634;2023-04-25T13:16:34;10.40;1.00
12959;DHT22;6544;51.666;6.634;2023-04-25T13:19:01;10.40;1.00
12959;DHT22;6544;51.666;6.634;2023-04-25T13:21:31;10.30;1.00
12959;DHT22;6544;51.666;6.634;2023-04-25T13:23:58;10.30;1.00
12959;DHT22;6544;51.666;6.634;2023-04-25T13:26:26;10.40;1.00
12959;DHT22;6544;51.666;6.634;2023-04-25T13:28:52;10.30;1.00
12959;DHT22;6544;51.666;6.634;2023-04-25T13:31:19;10.60;1.00
12959;DHT22;6544;51.666;6.634;2023-04-25T13:33:46;10.80;1.00
12959;DHT22;6544;51.666;6.634;2023-04-25T13:36:19;11.20;1.00
12959;DHT22;6544;51.666;6.634;2023-04-25T13:38:47;11.10;1.00
12959;DHT22;6544;51.666;6.634;2023-04-25T13:41:14;11.40;1.00
12959;DHT22;6544;51.666;6.634;2023-04-25T13:43:47;11.60;1.00
12959;DHT22;6544;51.666;6.634;2023-04-25T13:46:14;10.80;99.90
12959;DHT22;6544;51.666;6.634;2023-04-25T13:48:42;10.60;1.00
12959;DHT22;6544;51.666;6.634;2023-04-25T13:51:13;10.50;1.00
12959;DHT22;6544;51.666;6.634;2023-04-25T13:53:41;10.40;1.00
12959;DHT22;6544;51.666;6.634;2023-04-25T13:56:13;10.30;1.00
12959;DHT22;6544;51.666;6.634;2023-04-25T13:58:41;9.60;1.00
12959;DHT22;6544;51.666;6.634;2023-04-25T14:01:23;9.20;1.00
12959;DHT22;6544;51.666;6.634;2023-04-25T14:06:44;9.10;1.00
12959;DHT22;6544;51.666;6.634;2023-04-25T14:09:12;9.20;1.00
12959;DHT22;6544;51.666;6.634;2023-04-25T14:24:18;9.40;1.00
12959;DHT22;6544;51.666;6.634;2023-04-25T14:26:47;9.50;1.00
12959;DHT22;6544;51.666;6.634;2023-04-25T14:29:16;9.70;1.00
12959;DHT22;6544;51.666;6.634;2023-04-25T14:31:43;9.80;1.00
12959;DHT22;6544;51.666;6.634;2023-04-25T14:34:10;9.80;1.00
12959;DHT22;6544;51.666;6.634;2023-04-25T14:36:37;9.60;1.00
12959;DHT22;6544;51.666;6.634;2023-04-25T14:39:05;9.80;1.00
12959;DHT22;6544;51.666;6.634;2023-04-25T14:41:33;9.80;1.00
12959;DHT22;6544;51.666;6.634;2023-04-25T14:44:00;10.00;1.00
12959;DHT22;6544;51.666;6.634;2023-04-25T14:46:27;9.90;1.00
12959;DHT22;6544;51.666;6.634;2023-04-25T14:48:54;10.00;1.00
12959;DHT22;6544;51.666;6.634;2023-04-25T14:51:21;10.10;1.00
12959;DHT22;6544;51.666;6.634;2023-04-25T14:53:48;10.20;1.00
12959;DHT22;6544;51.666;6.634;2023-04-25T14:56:15;10.30;1.00
12959;DHT22;6544;51.666;6.634;2023-04-25T14:58:44;10.30;1.00
12959;DHT22;6544;51.666;6.634;2023-04-25T15:01:12;10.40;1.00
12959;DHT22;6544;51.666;6.634;2023-04-25T15:03:40;10.40;1.00
12959;DHT22;6544;51.666;6.634;2023-04-25T15:06:07;10.30;1.00
12959;DHT22;6544;51.666;6.634;2023-04-25T15:08:34;10.30;1.00
12959;DHT22;6544;51.666;6.634;2023-04-25T15:11:01;10.10;1.00
12959;DHT22;6544;51.666;6.634;2023-04-25T15:13:28;10.00;1.00
12959;DHT22;6544;51.666;6.634;2023-04-25T15:15:57;9.90;1.00
12959;DHT22;6544;51.666;6.634;2023-04-25T15:18:23;9.80;1.00
12959;DHT22;6544;51.666;6.634;2023-04-25T15:20:51;9.70;1.00
12959;DHT22;6544;51.666;6.634;2023-04-25T15:23:19;9.70;1.00
12959;DHT22;6544;51.666;6.634;2023-04-25T15:25:46;9.80;1.00
12959;DHT22;6544;51.666;6.634;2023-04-25T15:28:13;9.60;1.00
12959;DHT22;6544;51.666;6.634;2023-04-25T15:30:41;9.70;1.00
12959;DHT22;6544;51.666;6.634;2023-04-25T15:33:09;9.80;1.00
12959;DHT22;6544;51.666;6.634;2023-04-25T15:35:36;9.90;1.00
12959;DHT22;6544;51.666;6.634;2023-04-25T15:38:03;9.90;1.00
12959;DHT22;6544;51.666;6.634;2023-04-25T15:40:30;9.70;1.00
12959;DHT22;6544;51.666;6.634;2023-04-25T15:42:57;9.70;1.00
12959;DHT22;6544;51.666;6.634;2023-04-25T15:45:25;9.60;1.00
12959;DHT22;6544;51.666;6.634;2023-04-25T15:47:53;9.70;1.00
12959;DHT22;6544;51.666;6.634;2023-04-25T15:50:22;9.70;1.00
12959;DHT22;6544;51.666;6.634;2023-04-25T15:52:50;9.60;1.00
12959;DHT22;6544;51.666;6.634;2023-04-25T15:55:18;9.60;1.00
12959;DHT22;6544;51.666;6.634;2023-04-25T15:57:46;9.60;1.00
12959;DHT22;6544;51.666;6.634;2023-04-25T16:00:13;9.50;1.00
12959;DHT22;6544;51.666;6.634;2023-04-25T16:02:43;9.50;1.00
12959;DHT22;6544;51.666;6.634;2023-04-25T16:05:10;9.50;1.00
12959;DHT22;6544;51.666;6.634;2023-04-25T16:07:41;9.60;1.00
12959;DHT22;6544;51.666;6.634;2023-04-25T16:10:08;9.70;1.00
12959;DHT22;6544;51.666;6.634;2023-04-25T16:12:37;9.90;1.00
12959;DHT22;6544;51.666;6.634;2023-04-25T16:15:05;9.90;1.00
12959;DHT22;6544;51.666;6.634;2023-04-25T16:17:32;9.80;1.00
12959;DHT22;6544;51.666;6.634;2023-04-25T16:19:59;9.90;1.00
12959;DHT22;6544;51.666;6.634;2023-04-25T16:22:34;9.90;1.00
12959;DHT22;6544;51.666;6.634;2023-04-25T16:25:02;10.00;1.00
12959;DHT22;6544;51.666;6.634;2023-04-25T16:27:30;9.90;1.00
12959;DHT22;6544;51.666;6.634;2023-04-25T16:29:59;9.70;1.00
12959;DHT22;6544;51.666;6.634;2023-04-25T16:32:26;9.60;1.00